Time;durP1;ratioP1;P1;durP2;ratioP2;P2;SDS_P1;SDS_P2;PMS_P1;PMS_P2;Temp;Humidity;BMP_temperature;BMP_pressure;BME280_temperature;BME280_humidity;BME280_pressure;Samples;Min_cycle;Max_cycle;Signal;HPM_P1;HPM_P2
2022/05/31 00:01:09;;;;;;;72.35;11.55;;;;;;;;;;5033544;28;20396;-61
2022/05/31 00:03:36;;;;;;;56.38;10.80;;;;;;;;;;5037048;28;20484;-60
2022/05/31 00:06:03;;;;;;;60.72;11.07;;;;;;;;;;5033127;28;20084;-55
2022/05/31 00:08:32;;;;;;;65.20;12.27;;;;;;;;;;5038743;28;20438;-58
2022/05/31 00:11:00;;;;;;;52.97;10.43;;;;;;;;;;5039308;28;20045;-58
2022/05/31 00:13:30;;;;;;;43.33;10.68;;;;;;;;;;5041879;28;20087;-59
2022/05/31 00:15:57;;;;;;;65.10;12.05;;;;;;;;;;5042153;28;20395;-54
2022/05/31 00:18:24;;;;;;;67.80;10.93;;;;;;;;;;5043263;28;20025;-59
2022/05/31 00:20:51;;;;;;;73.43;13.32;;;;;;;;;;5040747;28;20032;-59
2022/05/31 00:23:22;;;;;;;81.50;14.35;;;;;;;;;;5042257;28;20479;-59
2022/05/31 00:25:49;;;;;;;67.72;15.75;;;;;;;;;;5038878;28;20030;-59
2022/05/31 00:28:16;;;;;;;69.43;16.30;;;;;;;;;;5032837;28;20568;-61
2022/05/31 00:30:43;;;;;;;74.28;16.27;;;;;;;;;;5033101;28;20030;-62
2022/05/31 00:33:10;;;;;;;69.60;17.27;;;;;;;;;;5015341;28;20041;-61
2022/05/31 00:35:39;;;;;;;69.28;17.77;;;;;;;;;;5038001;28;20104;-59
2022/05/31 00:38:07;;;;;;;67.63;17.60;;;;;;;;;;5037790;28;20136;-58
2022/05/31 00:40:34;;;;;;;66.80;17.92;;;;;;;;;;5040341;28;20025;-61
2022/05/31 00:43:04;;;;;;;68.72;18.67;;;;;;;;;;5041081;28;20083;-60
2022/05/31 00:45:39;;;;;;;61.95;18.40;;;;;;;;;;5031881;28;20049;-60
2022/05/31 00:48:08;;;;;;;77.60;18.13;;;;;;;;;;5035462;28;20033;-60
2022/05/31 00:50:42;;;;;;;77.93;18.90;;;;;;;;;;5042536;28;20029;-62
2022/05/31 00:53:11;;;;;;;68.03;18.42;;;;;;;;;;5025635;28;20418;-60
2022/05/31 00:55:42;;;;;;;68.95;18.08;;;;;;;;;;5047006;28;20108;-60
2022/05/31 00:58:33;;;;;;;70.55;21.60;;;;;;;;;;5035307;28;20038;-60
2022/05/31 01:01:01;;;;;;;74.18;21.08;;;;;;;;;;5033350;28;20560;-61
2022/05/31 01:03:28;;;;;;;66.75;21.77;;;;;;;;;;5033321;28;20038;-61
2022/05/31 01:05:55;;;;;;;71.43;24.23;;;;;;;;;;5032329;28;20479;-60
2022/05/31 01:08:22;;;;;;;81.22;24.77;;;;;;;;;;5033678;28;20030;-61
2022/05/31 01:10:50;;;;;;;77.53;28.13;;;;;;;;;;5033070;28;20033;-61
2022/05/31 01:13:17;;;;;;;88.00;29.92;;;;;;;;;;5032191;28;20033;-60
2022/05/31 01:15:45;;;;;;;71.53;28.20;;;;;;;;;;5032517;28;20033;-60
2022/05/31 01:18:13;;;;;;;76.88;30.30;;;;;;;;;;5032864;28;20052;-61
2022/05/31 01:20:40;;;;;;;78.05;30.20;;;;;;;;;;5032041;28;20118;-60
2022/05/31 01:23:17;;;;;;;78.57;28.80;;;;;;;;;;5032370;28;20025;-61
2022/05/31 01:26:07;;;;;;;74.03;28.73;;;;;;;;;;5033570;28;20387;-60
2022/05/31 01:28:49;;;;;;;80.65;29.95;;;;;;;;;;5000615;28;20038;-61
2022/05/31 01:31:22;;;;;;;68.03;27.70;;;;;;;;;;5052289;28;20028;-60
2022/05/31 01:33:59;;;;;;;76.32;26.90;;;;;;;;;;5052414;28;20033;-61
2022/05/31 01:36:39;;;;;;;73.85;26.00;;;;;;;;;;5051894;28;20407;-54
2022/05/31 01:39:09;;;;;;;77.00;25.92;;;;;;;;;;5053136;28;20475;-57
2022/05/31 01:41:42;;;;;;;63.83;25.58;;;;;;;;;;5044066;28;20025;-60
2022/05/31 01:44:11;;;;;;;67.55;23.80;;;;;;;;;;5041975;28;20452;-60
2022/05/31 01:46:38;;;;;;;68.13;23.13;;;;;;;;;;5042718;28;20053;-61
2022/05/31 01:49:07;;;;;;;72.70;22.80;;;;;;;;;;5041378;28;20048;-57
2022/05/31 01:51:35;;;;;;;70.93;23.67;;;;;;;;;;5041863;28;20029;-56
2022/05/31 01:54:03;;;;;;;66.30;23.00;;;;;;;;;;5043303;28;20046;-56
2022/05/31 01:56:30;;;;;;;58.40;21.13;;;;;;;;;;5052182;28;20060;-59
2022/05/31 01:58:58;;;;;;;62.20;20.23;;;;;;;;;;5033764;28;20395;-58
2022/05/31 02:01:26;;;;;;;61.67;19.52;;;;;;;;;;5033699;28;20071;-61
2022/05/31 02:03:53;;;;;;;62.97;19.92;;;;;;;;;;5058847;28;20124;-63
2022/05/31 02:06:27;;;;;;;54.20;19.15;;;;;;;;;;5055919;28;20047;-59
2022/05/31 02:08:54;;;;;;;57.75;19.17;;;;;;;;;;5034949;28;20387;-59
2022/05/31 02:11:22;;;;;;;56.38;18.05;;;;;;;;;;5051504;28;20698;-59
2022/05/31 02:13:49;;;;;;;71.88;19.90;;;;;;;;;;5052578;28;20056;-61
2022/05/31 02:16:16;;;;;;;65.90;19.00;;;;;;;;;;5023548;28;20036;-60
2022/05/31 02:21:35;;;;;;;60.90;18.27;;;;;;;;;;5040579;28;20079;-58
2022/05/31 02:24:03;;;;;;;59.17;17.45;;;;;;;;;;5040369;28;20049;-59
2022/05/31 02:26:30;;;;;;;56.45;17.45;;;;;;;;;;5049249;28;20025;-58
2022/05/31 02:28:57;;;;;;;63.28;17.48;;;;;;;;;;5052768;28;20047;-59
2022/05/31 02:31:24;;;;;;;51.92;16.90;;;;;;;;;;5052439;28;20028;-57
2022/05/31 02:33:51;;;;;;;62.65;16.25;;;;;;;;;;5052048;28;20629;-56
2022/05/31 02:36:18;;;;;;;49.95;15.65;;;;;;;;;;5051661;28;20048;-58
2022/05/31 02:38:45;;;;;;;55.78;16.55;;;;;;;;;;5052456;28;20032;-58
2022/05/31 02:41:12;;;;;;;53.85;15.23;;;;;;;;;;5052111;28;20029;-58
2022/05/31 02:43:39;;;;;;;54.53;15.38;;;;;;;;;;5051773;28;20025;-58
2022/05/31 02:46:06;;;;;;;48.03;15.15;;;;;;;;;;5052216;28;20052;-58
2022/05/31 02:48:34;;;;;;;47.42;14.95;;;;;;;;;;5051885;28;20021;-58
2022/05/31 02:51:01;;;;;;;50.80;14.40;;;;;;;;;;5052301;28;20036;-58
2022/05/31 02:53:29;;;;;;;48.47;14.13;;;;;;;;;;5051476;28;20035;-56
2022/05/31 02:55:57;;;;;;;59.08;15.02;;;;;;;;;;5051514;28;20033;-58
2022/05/31 02:58:25;;;;;;;51.17;14.02;;;;;;;;;;5052093;28;20033;-58
2022/05/31 03:00:52;;;;;;;43.97;12.98;;;;;;;;;;5051618;28;20368;-56
2022/05/31 03:03:19;;;;;;;36.38;12.77;;;;;;;;;;5052148;28;20458;-60
2022/05/31 03:05:46;;;;;;;37.83;12.95;;;;;;;;;;5051343;28;20037;-59
2022/05/31 03:08:13;;;;;;;41.63;12.50;;;;;;;;;;5051496;28;20048;-57
2022/05/31 03:10:44;;;;;;;41.13;12.70;;;;;;;;;;5051289;28;20025;-58
2022/05/31 03:13:12;;;;;;;44.70;12.25;;;;;;;;;;5051667;28;20028;-58
2022/05/31 03:15:39;;;;;;;39.78;11.88;;;;;;;;;;5051348;28;20486;-58
2022/05/31 03:18:11;;;;;;;35.90;11.55;;;;;;;;;;5052047;28;20035;-55
2022/05/31 03:20:41;;;;;;;37.37;11.90;;;;;;;;;;5051356;28;20545;-58
2022/05/31 03:23:08;;;;;;;33.45;11.48;;;;;;;;;;5051324;28;20039;-58
2022/05/31 03:25:36;;;;;;;34.22;11.45;;;;;;;;;;5051504;28;20510;-56
2022/05/31 03:28:04;;;;;;;40.58;12.32;;;;;;;;;;5051380;28;20047;-56
2022/05/31 03:30:33;;;;;;;37.60;12.40;;;;;;;;;;5033560;28;20020;-57
2022/05/31 03:33:01;;;;;;;41.45;11.65;;;;;;;;;;5051724;28;20041;-58
2022/05/31 03:35:28;;;;;;;40.17;11.63;;;;;;;;;;5050774;28;20073;-58
2022/05/31 03:37:55;;;;;;;33.63;9.77;;;;;;;;;;5033887;28;20036;-59
2022/05/31 03:43:07;;;;;;;35.58;10.07;;;;;;;;;;5051200;28;20126;-58
2022/05/31 03:45:41;;;;;;;35.67;10.43;;;;;;;;;;5051179;28;20102;-59
2022/05/31 03:48:09;;;;;;;34.20;9.75;;;;;;;;;;5051719;28;20039;-58
2022/05/31 03:50:40;;;;;;;34.78;11.05;;;;;;;;;;5050734;28;20055;-58
2022/05/31 03:53:11;;;;;;;29.58;10.10;;;;;;;;;;5051517;28;20040;-57
2022/05/31 03:55:39;;;;;;;29.90;9.45;;;;;;;;;;5050954;28;20581;-57
2022/05/31 03:58:06;;;;;;;36.35;9.45;;;;;;;;;;5051468;28;20044;-59
2022/05/31 04:00:34;;;;;;;25.83;9.45;;;;;;;;;;5017471;28;20391;-58
2022/05/31 04:03:00;;;;;;;29.30;9.55;;;;;;;;;;5050665;28;20033;-59
2022/05/31 04:05:28;;;;;;;29.80;9.05;;;;;;;;;;5050840;28;20079;-58
2022/05/31 04:07:56;;;;;;;25.60;9.23;;;;;;;;;;5051260;28;20029;-59
2022/05/31 04:10:23;;;;;;;24.85;8.63;;;;;;;;;;5051426;28;20040;-57
2022/05/31 04:12:50;;;;;;;25.08;9.40;;;;;;;;;;5050524;28;20126;-57
2022/05/31 04:15:17;;;;;;;29.65;8.73;;;;;;;;;;5050740;28;20498;-58
2022/05/31 04:17:44;;;;;;;27.38;8.85;;;;;;;;;;5051357;28;20033;-56
2022/05/31 04:20:11;;;;;;;30.00;8.98;;;;;;;;;;5051375;28;20033;-58
2022/05/31 04:22:38;;;;;;;23.88;8.25;;;;;;;;;;5050509;28;20033;-57
2022/05/31 04:25:05;;;;;;;24.70;8.18;;;;;;;;;;5050612;28;20025;-58
2022/05/31 04:27:32;;;;;;;25.63;8.23;;;;;;;;;;5051101;28;20032;-59
2022/05/31 04:29:59;;;;;;;22.75;8.02;;;;;;;;;;5050621;28;20033;-59
2022/05/31 04:32:26;;;;;;;27.08;7.90;;;;;;;;;;5050486;28;20060;-58
2022/05/31 04:34:53;;;;;;;21.52;7.28;;;;;;;;;;5053160;28;20031;-59
2022/05/31 04:37:21;;;;;;;17.58;7.97;;;;;;;;;;5054585;28;20037;-58
2022/05/31 04:39:48;;;;;;;23.80;7.43;;;;;;;;;;5054151;28;20029;-57
2022/05/31 04:42:16;;;;;;;24.33;7.57;;;;;;;;;;5053939;28;20025;-58
2022/05/31 04:44:43;;;;;;;22.00;7.88;;;;;;;;;;5054133;28;20122;-57
2022/05/31 04:47:10;;;;;;;18.13;7.32;;;;;;;;;;5054250;28;20029;-58
2022/05/31 04:49:37;;;;;;;19.50;7.18;;;;;;;;;;5054814;28;20113;-58
2022/05/31 04:52:04;;;;;;;22.98;7.13;;;;;;;;;;5053976;28;20032;-58
2022/05/31 04:54:31;;;;;;;16.70;6.68;;;;;;;;;;5036496;28;20392;-57
2022/05/31 04:57:04;;;;;;;21.45;7.47;;;;;;;;;;5053459;28;20040;-58
2022/05/31 04:59:31;;;;;;;19.95;7.05;;;;;;;;;;5054015;28;20036;-59
2022/05/31 05:01:58;;;;;;;20.90;7.10;;;;;;;;;;5053699;28;20029;-58
2022/05/31 05:04:25;;;;;;;20.80;6.97;;;;;;;;;;5054107;28;20025;-58
2022/05/31 05:06:52;;;;;;;22.70;6.85;;;;;;;;;;5053878;28;20139;-57
2022/05/31 05:09:19;;;;;;;19.60;7.10;;;;;;;;;;5054258;28;20474;-58
2022/05/31 05:11:46;;;;;;;20.80;6.85;;;;;;;;;;5053801;28;20545;-58
2022/05/31 05:14:13;;;;;;;19.02;6.93;;;;;;;;;;5053767;28;20104;-59
2022/05/31 05:16:41;;;;;;;19.63;6.63;;;;;;;;;;5053503;28;20044;-57
2022/05/31 05:19:08;;;;;;;18.40;6.68;;;;;;;;;;5054062;28;20114;-58
2022/05/31 05:21:35;;;;;;;15.93;6.15;;;;;;;;;;5054047;28;20449;-57
2022/05/31 05:24:02;;;;;;;16.90;6.00;;;;;;;;;;5053648;28;20116;-57
2022/05/31 05:26:29;;;;;;;19.58;6.38;;;;;;;;;;5053950;28;20667;-58
2022/05/31 05:31:42;;;;;;;22.35;6.63;;;;;;;;;;5053697;28;20039;-56
2022/05/31 05:34:09;;;;;;;19.88;6.43;;;;;;;;;;5052972;28;20394;-57
2022/05/31 05:36:36;;;;;;;13.60;5.97;;;;;;;;;;5053043;28;20410;-58
2022/05/31 05:39:04;;;;;;;18.70;6.65;;;;;;;;;;5053352;28;20067;-58
2022/05/31 05:41:31;;;;;;;17.30;6.20;;;;;;;;;;5053176;28;20043;-59
2022/05/31 05:43:58;;;;;;;14.85;6.25;;;;;;;;;;5053310;28;20096;-59
2022/05/31 05:46:27;;;;;;;15.90;5.82;;;;;;;;;;5052018;28;20041;-59
2022/05/31 05:48:54;;;;;;;18.48;5.60;;;;;;;;;;5052491;28;20051;-59
2022/05/31 05:51:26;;;;;;;17.08;5.68;;;;;;;;;;5035416;28;20025;-59
2022/05/31 05:53:53;;;;;;;18.52;5.93;;;;;;;;;;5052665;28;20561;-57
2022/05/31 05:56:21;;;;;;;12.85;5.30;;;;;;;;;;5053434;28;20052;-59
2022/05/31 05:58:48;;;;;;;15.43;5.80;;;;;;;;;;5052588;28;20025;-59
2022/05/31 06:01:21;;;;;;;17.73;5.70;;;;;;;;;;5053127;28;20032;-58
2022/05/31 06:03:52;;;;;;;15.57;5.05;;;;;;;;;;5052805;28;20036;-57
2022/05/31 06:06:19;;;;;;;12.43;4.75;;;;;;;;;;5053357;28;20080;-58
2022/05/31 06:08:51;;;;;;;13.55;5.10;;;;;;;;;;5052667;28;20044;-59
2022/05/31 06:11:20;;;;;;;17.70;5.50;;;;;;;;;;5052842;28;20107;-59
2022/05/31 06:14:10;;;;;;;11.23;3.83;;;;;;;;;;5034801;28;20040;-59
2022/05/31 06:16:40;;;;;;;16.95;5.45;;;;;;;;;;5006152;28;20087;-58
2022/05/31 06:19:10;;;;;;;13.55;5.75;;;;;;;;;;5053014;28;20397;-59
2022/05/31 06:21:37;;;;;;;15.07;5.15;;;;;;;;;;5052107;28;20028;-59
2022/05/31 06:24:04;;;;;;;11.35;5.05;;;;;;;;;;5052998;28;20025;-57
2022/05/31 06:26:31;;;;;;;14.27;4.68;;;;;;;;;;5051915;28;20024;-59
2022/05/31 06:28:58;;;;;;;10.65;4.43;;;;;;;;;;5052914;28;20029;-59
2022/05/31 06:31:25;;;;;;;12.27;4.85;;;;;;;;;;5202963;22;20920;-55
2022/05/31 06:33:52;;;;;;;13.25;4.25;;;;;;;;;;5049403;28;20112;-59
2022/05/31 06:36:19;;;;;;;11.20;4.25;;;;;;;;;;5051540;28;20033;-58
2022/05/31 06:38:46;;;;;;;12.30;4.95;;;;;;;;;;5052307;28;20024;-58
2022/05/31 06:41:14;;;;;;;12.73;4.63;;;;;;;;;;5051490;28;20025;-56
2022/05/31 06:43:41;;;;;;;11.60;4.80;;;;;;;;;;5052387;28;20041;-58
2022/05/31 06:46:10;;;;;;;12.65;4.90;;;;;;;;;;5052262;28;20143;-57
2022/05/31 06:48:37;;;;;;;10.73;4.55;;;;;;;;;;5051423;28;20092;-59
2022/05/31 06:51:05;;;;;;;8.70;4.07;;;;;;;;;;5052183;28;20028;-58
2022/05/31 06:59:02;;;;;;;11.82;3.70;;;;;;;;;;5051884;28;20078;-58
2022/05/31 07:01:34;;;;;;;13.23;4.53;;;;;;;;;;5051116;28;20017;-57
2022/05/31 07:04:02;;;;;;;8.63;4.00;;;;;;;;;;5051947;28;20036;-57
2022/05/31 07:06:29;;;;;;;11.60;3.72;;;;;;;;;;5050939;28;20390;-59
2022/05/31 07:08:56;;;;;;;9.85;4.38;;;;;;;;;;5051529;28;20489;-59
2022/05/31 07:11:23;;;;;;;9.05;3.85;;;;;;;;;;5051091;28;20025;-59
2022/05/31 07:13:50;;;;;;;12.23;4.22;;;;;;;;;;5051287;28;20086;-57
2022/05/31 07:16:17;;;;;;;8.38;3.90;;;;;;;;;;5051635;28;20039;-59
2022/05/31 07:18:44;;;;;;;7.47;3.55;;;;;;;;;;5051223;28;20029;-58
2022/05/31 07:21:11;;;;;;;7.30;3.83;;;;;;;;;;5051235;28;20017;-57
2022/05/31 07:23:40;;;;;;;11.70;4.00;;;;;;;;;;5051082;28;20240;-57
2022/05/31 07:26:08;;;;;;;7.57;3.85;;;;;;;;;;5051735;28;20082;-58
2022/05/31 07:28:35;;;;;;;8.65;3.35;;;;;;;;;;5051041;28;20025;-59
2022/05/31 07:31:02;;;;;;;9.63;3.60;;;;;;;;;;5051312;28;20032;-59
2022/05/31 07:33:29;;;;;;;8.93;4.10;;;;;;;;;;5050333;28;20041;-60
2022/05/31 07:35:56;;;;;;;9.60;3.63;;;;;;;;;;5051464;28;20075;-58
2022/05/31 07:38:23;;;;;;;8.80;3.30;;;;;;;;;;5050251;28;20440;-58
2022/05/31 07:40:51;;;;;;;10.30;3.40;;;;;;;;;;5051440;28;20394;-59
2022/05/31 07:43:18;;;;;;;6.78;3.38;;;;;;;;;;5051437;28;20021;-59
2022/05/31 07:45:45;;;;;;;9.93;3.33;;;;;;;;;;5051032;28;20028;-57
2022/05/31 07:48:13;;;;;;;9.50;3.38;;;;;;;;;;5050802;28;20037;-59
2022/05/31 07:50:40;;;;;;;11.00;3.78;;;;;;;;;;5051362;28;20061;-57
2022/05/31 07:53:07;;;;;;;8.50;3.55;;;;;;;;;;5050509;28;20021;-58
2022/05/31 07:55:34;;;;;;;6.78;3.30;;;;;;;;;;5051656;28;20441;-57
2022/05/31 08:00:46;;;;;;;7.55;3.00;;;;;;;;;;5051438;28;20505;-57
2022/05/31 08:03:13;;;;;;;7.45;2.92;;;;;;;;;;5050535;28;20098;-55
2022/05/31 08:05:41;;;;;;;9.70;4.07;;;;;;;;;;5051382;28;20100;-57
2022/05/31 08:08:09;;;;;;;6.35;2.80;;;;;;;;;;5050867;28;20498;-58
2022/05/31 08:10:37;;;;;;;9.10;3.15;;;;;;;;;;5054195;28;20036;-56
2022/05/31 08:13:04;;;;;;;6.28;2.83;;;;;;;;;;5055027;28;20021;-56
2022/05/31 08:15:31;;;;;;;6.60;3.15;;;;;;;;;;5054599;28;20017;-58
2022/05/31 08:17:57;;;;;;;7.93;3.15;;;;;;;;;;5055263;28;20032;-59
2022/05/31 08:20:24;;;;;;;7.80;3.28;;;;;;;;;;5055270;28;20023;-57
2022/05/31 08:22:51;;;;;;;9.93;3.08;;;;;;;;;;5055107;28;20025;-59
2022/05/31 08:25:19;;;;;;;7.25;3.15;;;;;;;;;;5054584;28;20595;-58
2022/05/31 08:27:47;;;;;;;7.45;3.25;;;;;;;;;;5054530;28;20163;-58
2022/05/31 08:30:14;;;;;;;7.97;2.72;;;;;;;;;;5054098;28;20025;-57
2022/05/31 08:32:41;;;;;;;6.38;2.80;;;;;;;;;;5054508;28;20131;-57
2022/05/31 08:35:08;;;;;;;8.15;3.13;;;;;;;;;;5054624;28;20025;-58
2022/05/31 08:37:35;;;;;;;5.55;2.67;;;;;;;;;;5054573;28;20057;-58
2022/05/31 08:40:02;;;;;;;8.15;3.25;;;;;;;;;;5054308;28;20024;-58
2022/05/31 08:42:35;;;;;;;5.95;2.80;;;;;;;;;;5054737;28;20017;-57
2022/05/31 08:45:09;;;;;;;5.10;2.80;;;;;;;;;;5053872;28;20086;-56
2022/05/31 08:47:41;;;;;;;7.43;2.78;;;;;;;;;;5054228;28;20079;-57
2022/05/31 08:53:12;;;;;;;5.03;2.80;;;;;;;;;;5053600;28;20505;-56
2022/05/31 08:58:51;;;;;;;6.60;2.95;;;;;;;;;;5053857;28;20505;-58
2022/05/31 09:01:20;;;;;;;5.07;2.80;;;;;;;;;;5054233;28;20048;-58
2022/05/31 09:03:52;;;;;;;7.07;3.00;;;;;;;;;;5053938;28;20486;-59
2022/05/31 09:06:23;;;;;;;4.82;2.75;;;;;;;;;;5053882;28;20029;-56
2022/05/31 09:09:03;;;;;;;6.82;3.05;;;;;;;;;;5054353;28;20036;-59
2022/05/31 09:11:41;;;;;;;5.20;2.50;;;;;;;;;;5053159;28;20537;-58
2022/05/31 09:14:31;;;;;;;6.38;3.13;;;;;;;;;;5054307;28;20024;-58
2022/05/31 09:17:04;;;;;;;5.53;2.80;;;;;;;;;;5054136;28;20090;-58
2022/05/31 09:19:36;;;;;;;7.75;3.20;;;;;;;;;;5053356;28;20021;-54
2022/05/31 09:22:03;;;;;;;6.33;2.93;;;;;;;;;;5053974;28;20025;-54
2022/05/31 09:24:30;;;;;;;7.63;3.00;;;;;;;;;;5053664;28;20025;-58
2022/05/31 09:27:04;;;;;;;7.50;2.97;;;;;;;;;;5053169;28;20437;-57
2022/05/31 09:29:35;;;;;;;5.80;2.65;;;;;;;;;;5052958;28;20059;-60
2022/05/31 09:32:05;;;;;;;5.32;2.45;;;;;;;;;;5052398;28;20052;-60
2022/05/31 09:34:35;;;;;;;6.95;2.85;;;;;;;;;;5053700;28;20502;-60
2022/05/31 09:37:31;;;;;;;11.23;3.20;;;;;;;;;;5034330;28;20391;-60
2022/05/31 09:40:04;;;;;;;8.98;2.92;;;;;;;;;;5039773;28;20036;-56
2022/05/31 09:42:36;;;;;;;8.32;2.90;;;;;;;;;;5050098;28;20025;-60
2022/05/31 09:45:11;;;;;;;11.48;2.50;;;;;;;;;;5052602;28;20479;-55
2022/05/31 09:47:38;;;;;;;7.97;2.78;;;;;;;;;;5053551;28;20033;-58
2022/05/31 09:50:05;;;;;;;7.82;2.80;;;;;;;;;;5053023;28;20502;-58
2022/05/31 09:52:42;;;;;;;8.85;2.90;;;;;;;;;;5052811;28;20104;-59
2022/05/31 09:58:13;;;;;;;6.50;3.35;;;;;;;;;;5052701;28;20052;-59
2022/05/31 10:00:58;;;;;;;9.10;3.33;;;;;;;;;;5053214;28;20037;-58
2022/05/31 10:03:39;;;;;;;6.15;2.70;;;;;;;;;;5053081;28;20517;-59
2022/05/31 10:06:08;;;;;;;8.30;2.92;;;;;;;;;;5052398;28;20051;-58
2022/05/31 10:08:36;;;;;;;7.72;2.97;;;;;;;;;;5052491;28;20107;-58
2022/05/31 10:11:10;;;;;;;11.60;4.65;;;;;;;;;;5052407;28;20017;-57
2022/05/31 10:13:45;;;;;;;8.88;2.70;;;;;;;;;;5052986;28;20056;-58
2022/05/31 10:16:16;;;;;;;9.43;3.08;;;;;;;;;;5051917;28;20017;-59
2022/05/31 10:18:48;;;;;;;7.93;2.85;;;;;;;;;;5052230;28;20036;-59
2022/05/31 10:21:26;;;;;;;6.55;2.67;;;;;;;;;;5052617;28;20048;-58
2022/05/31 10:23:53;;;;;;;11.07;3.17;;;;;;;;;;5052940;28;20095;-56
2022/05/31 10:26:28;;;;;;;13.45;3.45;;;;;;;;;;5051952;28;20025;-58
2022/05/31 10:28:58;;;;;;;10.65;2.97;;;;;;;;;;5051507;28;20025;-56
2022/05/31 10:31:39;;;;;;;7.57;3.45;;;;;;;;;;5051914;28;20021;-57
2022/05/31 10:34:07;;;;;;;9.70;3.03;;;;;;;;;;5053746;28;20032;-59
2022/05/31 10:36:47;;;;;;;12.02;3.00;;;;;;;;;;5053576;28;20025;-60
2022/05/31 10:39:18;;;;;;;11.70;3.22;;;;;;;;;;5052937;28;20494;-57
2022/05/31 10:41:45;;;;;;;16.35;3.10;;;;;;;;;;5051681;28;20036;-56
2022/05/31 10:44:21;;;;;;;21.70;3.58;;;;;;;;;;5052083;28;20504;-55
2022/05/31 10:46:51;;;;;;;16.63;3.20;;;;;;;;;;5052425;28;20094;-58
2022/05/31 10:49:22;;;;;;;12.65;3.15;;;;;;;;;;5052709;28;20048;-57
2022/05/31 10:51:53;;;;;;;17.17;3.53;;;;;;;;;;5051721;28;20524;-57
2022/05/31 10:54:38;;;;;;;11.10;3.28;;;;;;;;;;5052378;28;20037;-59
2022/05/31 10:57:10;;;;;;;18.23;3.55;;;;;;;;;;5051924;28;20091;-58
2022/05/31 10:59:46;;;;;;;13.70;3.45;;;;;;;;;;5052472;28;20021;-55
2022/05/31 11:02:31;;;;;;;15.77;3.72;;;;;;;;;;5051569;28;20029;-58
2022/05/31 11:05:01;;;;;;;21.48;3.92;;;;;;;;;;5052191;28;20796;-56
2022/05/31 11:07:31;;;;;;;18.70;3.75;;;;;;;;;;5051826;28;20029;-58
2022/05/31 11:12:50;;;;;;;;;;;;;;;;;;5052923;28;20126;-57
2022/05/31 11:15:32;;;;;;;22.58;3.67;;;;;;;;;;5051414;28;19958;-56
2022/05/31 11:18:18;;;;;;;29.92;4.65;;;;;;;;;;5051597;28;20091;-55
2022/05/31 11:20:54;;;;;;;33.30;4.60;;;;;;;;;;5052116;28;20036;-58
2022/05/31 11:23:21;;;;;;;51.58;5.43;;;;;;;;;;5051527;28;20025;-53
2022/05/31 11:25:59;;;;;;;21.60;3.63;;;;;;;;;;5052160;28;20033;-54
2022/05/31 11:28:26;;;;;;;23.35;4.68;;;;;;;;;;5051358;28;20383;-58
2022/05/31 11:30:55;;;;;;;51.95;5.57;;;;;;;;;;5051926;28;20029;-58
2022/05/31 11:33:38;;;;;;;154.35;15.70;;;;;;;;;;5051745;28;20051;-58
2022/05/31 11:36:14;;;;;;;140.30;11.68;;;;;;;;;;5051681;28;20034;-57
2022/05/31 11:38:41;;;;;;;72.40;8.27;;;;;;;;;;5050523;28;20429;-58
2022/05/31 11:41:33;;;;;;;45.70;6.72;;;;;;;;;;5051324;28;20108;-58
2022/05/31 11:44:18;;;;;;;49.90;7.93;;;;;;;;;;5051361;28;20028;-57
2022/05/31 11:47:05;;;;;;;42.70;7.47;;;;;;;;;;5055574;28;20482;-55
2022/05/31 11:49:40;;;;;;;241.82;21.88;;;;;;;;;;5054865;28;20066;-52
2022/05/31 11:52:13;;;;;;;83.50;10.95;;;;;;;;;;5055147;28;20139;-50
2022/05/31 11:54:41;;;;;;;65.40;8.85;;;;;;;;;;5055224;28;20025;-49
2022/05/31 11:57:08;;;;;;;68.50;9.50;;;;;;;;;;5055484;28;20548;-54
2022/05/31 11:59:38;;;;;;;63.42;9.75;;;;;;;;;;5054865;28;20039;-54
2022/05/31 12:02:16;;;;;;;157.27;17.38;;;;;;;;;;5055370;28;20059;-53
2022/05/31 12:04:46;;;;;;;111.07;13.02;;;;;;;;;;5055446;28;20482;-52
2022/05/31 12:07:18;;;;;;;72.35;11.43;;;;;;;;;;5052606;28;20049;-55
2022/05/31 12:09:49;;;;;;;63.28;11.27;;;;;;;;;;5053442;28;20055;-52
2022/05/31 12:12:33;;;;;;;64.22;10.32;;;;;;;;;;5055200;28;20025;-54
2022/05/31 12:15:09;;;;;;;84.57;11.30;;;;;;;;;;5054815;28;20044;-54
2022/05/31 12:17:43;;;;;;;74.28;11.38;;;;;;;;;;5054451;28;20044;-54
2022/05/31 12:20:22;;;;;;;72.97;11.18;;;;;;;;;;5055170;28;20025;-48
2022/05/31 12:22:55;;;;;;;67.97;10.85;;;;;;;;;;5054758;28;20032;-54
2022/05/31 12:25:31;;;;;;;62.15;10.40;;;;;;;;;;5054603;28;20557;-55
2022/05/31 12:28:18;;;;;;;57.70;11.43;;;;;;;;;;5054533;28;20793;-53
2022/05/31 12:30:59;;;;;;;67.65;11.13;;;;;;;;;;5054763;28;20025;-52
2022/05/31 12:33:55;;;;;;;54.50;10.40;;;;;;;;;;5054122;28;20139;-53
2022/05/31 12:36:23;;;;;;;59.15;10.75;;;;;;;;;;5053778;28;20148;-52
2022/05/31 12:38:56;;;;;;;54.58;10.13;;;;;;;;;;5054929;28;20036;-52
2022/05/31 12:41:40;;;;;;;60.95;10.05;;;;;;;;;;5053960;28;20037;-55
2022/05/31 12:44:10;;;;;;;48.67;10.15;;;;;;;;;;5054734;28;20056;-53
2022/05/31 12:46:45;;;;;;;53.42;9.90;;;;;;;;;;5054142;28;20028;-52
2022/05/31 12:49:20;;;;;;;63.40;10.48;;;;;;;;;;5054391;28;20025;-51
2022/05/31 12:52:06;;;;;;;48.83;9.77;;;;;;;;;;5054051;28;20112;-51
2022/05/31 12:54:46;;;;;;;50.40;11.00;;;;;;;;;;5053520;28;20103;-54
2022/05/31 13:00:35;;;;;;;53.88;10.55;;;;;;;;;;5054210;28;20044;-54
2022/05/31 13:03:05;;;;;;;45.40;10.43;;;;;;;;;;5054446;28;20033;-54
2022/05/31 13:06:02;;;;;;;52.70;10.30;;;;;;;;;;5053276;28;20040;-53
2022/05/31 13:08:47;;;;;;;58.95;11.13;;;;;;;;;;5037111;28;20048;-52
2022/05/31 13:20:13;;;;;;;54.83;11.25;;;;;;;;;;5053833;28;20040;-54
2022/05/31 13:22:44;;;;;;;72.15;11.82;;;;;;;;;;5052921;28;20021;-48
2022/05/31 13:25:23;;;;;;;59.10;10.82;;;;;;;;;;5053368;28;20108;-51
2022/05/31 13:27:52;;;;;;;64.63;12.52;;;;;;;;;;5053896;28;20025;-52
2022/05/31 13:30:19;;;;;;;63.72;11.32;;;;;;;;;;5053011;28;20051;-50
2022/05/31 13:32:46;;;;;;;54.20;11.05;;;;;;;;;;5052913;28;20502;-52
2022/05/31 13:35:15;;;;;;;60.15;11.95;;;;;;;;;;5053744;28;20390;-49
2022/05/31 13:37:57;;;;;;;60.58;12.57;;;;;;;;;;5035088;28;20082;-49
2022/05/31 13:40:32;;;;;;;45.17;10.25;;;;;;;;;;5051277;28;20051;-57
2022/05/31 13:43:00;;;;;;;52.17;11.20;;;;;;;;;;5051907;28;20509;-56
2022/05/31 13:45:28;;;;;;;44.83;10.52;;;;;;;;;;5052149;28;20394;-54
2022/05/31 13:48:02;;;;;;;53.33;10.98;;;;;;;;;;5052451;28;20403;-55
2022/05/31 13:50:37;;;;;;;46.38;10.65;;;;;;;;;;5052207;28;20035;-57
2022/05/31 13:53:05;;;;;;;39.22;9.57;;;;;;;;;;5052930;28;20032;-55
2022/05/31 13:55:34;;;;;;;47.90;10.65;;;;;;;;;;5051822;28;20390;-56
2022/05/31 13:58:02;;;;;;;42.55;10.40;;;;;;;;;;5052587;28;20483;-57
2022/05/31 14:00:55;;;;;;;53.38;10.32;;;;;;;;;;5051911;28;20106;-58
2022/05/31 14:03:27;;;;;;;39.13;10.27;;;;;;;;;;5049392;28;20063;-59
2022/05/31 14:05:54;;;;;;;39.85;10.50;;;;;;;;;;5051534;28;20456;-57
2022/05/31 14:08:43;;;;;;;39.83;9.77;;;;;;;;;;5050925;28;20044;-58
2022/05/31 14:11:22;;;;;;;41.33;9.75;;;;;;;;;;5039877;28;20091;-57
2022/05/31 14:13:51;;;;;;;47.03;9.70;;;;;;;;;;5051958;28;20029;-56
2022/05/31 14:16:36;;;;;;;38.22;9.68;;;;;;;;;;5052208;28;20052;-58
2022/05/31 14:19:05;;;;;;;40.60;10.48;;;;;;;;;;5051392;28;20031;-56
2022/05/31 14:21:41;;;;;;;33.42;9.25;;;;;;;;;;5052325;28;20083;-53
2022/05/31 14:24:11;;;;;;;60.92;12.38;;;;;;;;;;5050547;28;20372;-57
2022/05/31 14:26:39;;;;;;;60.80;10.82;;;;;;;;;;5051062;28;20025;-58
2022/05/31 14:29:16;;;;;;;67.00;10.95;;;;;;;;;;5052200;28;20100;-58
2022/05/31 14:31:45;;;;;;;48.75;10.63;;;;;;;;;;5050757;28;20025;-54
2022/05/31 14:34:33;;;;;;;55.42;10.68;;;;;;;;;;5051178;28;20025;-56
2022/05/31 14:37:01;;;;;;;44.75;9.57;;;;;;;;;;5037878;28;20078;-57
2022/05/31 14:39:29;;;;;;;52.42;10.77;;;;;;;;;;5051718;28;20560;-58
2022/05/31 14:41:56;;;;;;;45.10;10.93;;;;;;;;;;5050486;28;20078;-57
2022/05/31 14:44:30;;;;;;;40.97;10.07;;;;;;;;;;5051011;28;20029;-58
2022/05/31 14:47:36;;;;;;;49.38;11.20;;;;;;;;;;5051322;28;20100;-58
2022/05/31 14:50:03;;;;;;;36.22;10.30;;;;;;;;;;4969498;28;20048;-58
2022/05/31 14:52:33;;;;;;;44.90;9.77;;;;;;;;;;5037625;28;20037;-56
2022/05/31 14:55:11;;;;;;;38.05;10.38;;;;;;;;;;5051170;28;20086;-56
2022/05/31 15:00:23;;;;;;;42.83;11.95;;;;;;;;;;5051311;28;20079;-55
2022/05/31 15:02:51;;;;;;;74.10;14.18;;;;;;;;;;5050761;28;20029;-55
2022/05/31 15:05:26;;;;;;;61.40;13.48;;;;;;;;;;5050855;28;20112;-57
2022/05/31 15:07:55;;;;;;;53.63;13.68;;;;;;;;;;5050922;28;20033;-57
2022/05/31 15:10:27;;;;;;;62.97;14.05;;;;;;;;;;5050736;28;20028;-57
2022/05/31 15:21:16;;;;;;;50.55;12.88;;;;;;;;;;5051118;28;20044;-55
2022/05/31 15:23:43;;;;;;;60.92;14.18;;;;;;;;;;5050566;28;20411;-50
2022/05/31 15:26:16;;;;;;;65.63;17.80;;;;;;;;;;5049585;28;20031;-54
2022/05/31 15:28:43;;;;;;;75.13;27.83;;;;;;;;;;5051104;28;20061;-55
2022/05/31 15:31:12;;;;;;;94.47;41.88;;;;;;;;;;5050805;28;20032;-50
2022/05/31 15:33:39;;;;;;;145.73;66.38;;;;;;;;;;5049783;28;20067;-54
2022/05/31 15:36:06;;;;;;;154.02;76.30;;;;;;;;;;5050112;28;20031;-53
2022/05/31 15:38:34;;;;;;;168.30;87.70;;;;;;;;;;5050083;28;20041;-57